sensor_id;sensor_type;location;lat;lon;timestamp;temperature;humidity
21261;DHT22;10788;47.930;9.766;2022-08-19T00:02:06;17.30;99.90
21261;DHT22;10788;47.930;9.766;2022-08-19T00:04:34;17.30;99.90
21261;DHT22;10788;47.930;9.766;2022-08-19T00:07:02;17.30;99.90
21261;DHT22;10788;47.930;9.766;2022-08-19T00:09:29;17.30;99.90
21261;DHT22;10788;47.930;9.766;2022-08-19T00:11:55;17.30;99.90
21261;DHT22;10788;47.930;9.766;2022-08-19T00:14:22;17.40;99.90
21261;DHT22;10788;47.930;9.766;2022-08-19T00:16:49;17.40;99.90
21261;DHT22;10788;47.930;9.766;2022-08-19T00:19:17;17.40;99.90
21261;DHT22;10788;47.930;9.766;2022-08-19T00:21:43;17.30;99.90
21261;DHT22;10788;47.930;9.766;2022-08-19T00:24:11;17.30;99.90
21261;DHT22;10788;47.930;9.766;2022-08-19T00:26:38;17.30;99.90
21261;DHT22;10788;47.930;9.766;2022-08-19T00:29:06;17.30;99.90
21261;DHT22;10788;47.930;9.766;2022-08-19T00:31:32;17.30;99.90
21261;DHT22;10788;47.930;9.766;2022-08-19T00:33:57;17.20;99.90
21261;DHT22;10788;47.930;9.766;2022-08-19T00:36:23;17.20;99.90
21261;DHT22;10788;47.930;9.766;2022-08-19T00:38:49;17.20;99.90
21261;DHT22;10788;47.930;9.766;2022-08-19T00:41:19;17.20;99.90
21261;DHT22;10788;47.930;9.766;2022-08-19T00:44:10;17.30;99.90
21261;DHT22;10788;47.930;9.766;2022-08-19T00:46:41;17.20;99.90
21261;DHT22;10788;47.930;9.766;2022-08-19T00:49:11;17.20;99.90
21261;DHT22;10788;47.930;9.766;2022-08-19T00:51:41;17.20;99.90
21261;DHT22;10788;47.930;9.766;2022-08-19T00:54:06;17.20;99.90
21261;DHT22;10788;47.930;9.766;2022-08-19T00:56:32;17.20;99.90
21261;DHT22;10788;47.930;9.766;2022-08-19T00:58:59;17.10;99.90
21261;DHT22;10788;47.930;9.766;2022-08-19T01:01:27;17.00;99.90
21261;DHT22;10788;47.930;9.766;2022-08-19T01:03:52;16.90;99.90
21261;DHT22;10788;47.930;9.766;2022-08-19T01:06:18;16.90;99.90
21261;DHT22;10788;47.930;9.766;2022-08-19T01:08:44;16.90;99.90
21261;DHT22;10788;47.930;9.766;2022-08-19T01:11:10;16.80;99.90
21261;DHT22;10788;47.930;9.766;2022-08-19T01:13:35;16.80;99.90
21261;DHT22;10788;47.930;9.766;2022-08-19T01:16:05;16.80;99.90
21261;DHT22;10788;47.930;9.766;2022-08-19T01:18:35;16.80;99.90
21261;DHT22;10788;47.930;9.766;2022-08-19T01:21:07;16.80;99.90
21261;DHT22;10788;47.930;9.766;2022-08-19T01:23:34;16.80;99.90
21261;DHT22;10788;47.930;9.766;2022-08-19T01:26:15;16.70;99.90
21261;DHT22;10788;47.930;9.766;2022-08-19T01:28:43;16.70;99.90
21261;DHT22;10788;47.930;9.766;2022-08-19T01:31:18;16.60;99.90
21261;DHT22;10788;47.930;9.766;2022-08-19T01:33:44;16.60;99.90
21261;DHT22;10788;47.930;9.766;2022-08-19T01:36:15;16.60;99.90
21261;DHT22;10788;47.930;9.766;2022-08-19T01:38:42;16.60;99.90
21261;DHT22;10788;47.930;9.766;2022-08-19T01:41:09;16.60;99.90
21261;DHT22;10788;47.930;9.766;2022-08-19T01:43:35;16.60;99.90
21261;DHT22;10788;47.930;9.766;2022-08-19T01:46:01;16.60;99.90
21261;DHT22;10788;47.930;9.766;2022-08-19T01:48:37;16.60;99.90
21261;DHT22;10788;47.930;9.766;2022-08-19T01:51:03;16.60;99.90
21261;DHT22;10788;47.930;9.766;2022-08-19T01:53:29;16.60;99.90
21261;DHT22;10788;47.930;9.766;2022-08-19T01:55:55;16.60;99.90
21261;DHT22;10788;47.930;9.766;2022-08-19T01:58:24;16.60;99.90
21261;DHT22;10788;47.930;9.766;2022-08-19T02:00:51;16.60;99.90
21261;DHT22;10788;47.930;9.766;2022-08-19T02:03:17;16.60;99.90
21261;DHT22;10788;47.930;9.766;2022-08-19T02:05:44;16.60;99.90
21261;DHT22;10788;47.930;9.766;2022-08-19T02:08:11;16.60;99.90
21261;DHT22;10788;47.930;9.766;2022-08-19T02:10:41;16.70;99.90
21261;DHT22;10788;47.930;9.766;2022-08-19T02:13:07;16.70;99.90
21261;DHT22;10788;47.930;9.766;2022-08-19T02:15:33;16.80;99.90
21261;DHT22;10788;47.930;9.766;2022-08-19T02:17:58;16.80;99.90
21261;DHT22;10788;47.930;9.766;2022-08-19T02:20:24;16.80;99.90
21261;DHT22;10788;47.930;9.766;2022-08-19T02:22:50;16.70;99.90
21261;DHT22;10788;47.930;9.766;2022-08-19T02:25:16;16.60;99.90
21261;DHT22;10788;47.930;9.766;2022-08-19T02:27:42;16.60;99.90
21261;DHT22;10788;47.930;9.766;2022-08-19T02:30:11;16.60;99.90
21261;DHT22;10788;47.930;9.766;2022-08-19T02:32:37;16.60;99.90
21261;DHT22;10788;47.930;9.766;2022-08-19T02:35:04;16.60;99.90
21261;DHT22;10788;47.930;9.766;2022-08-19T02:37:29;16.60;99.90
21261;DHT22;10788;47.930;9.766;2022-08-19T02:40:14;16.60;99.90
21261;DHT22;10788;47.930;9.766;2022-08-19T02:42:40;16.60;99.90
21261;DHT22;10788;47.930;9.766;2022-08-19T02:45:06;16.60;99.90
21261;DHT22;10788;47.930;9.766;2022-08-19T02:47:33;16.60;99.90
21261;DHT22;10788;47.930;9.766;2022-08-19T02:50:00;16.60;99.90
21261;DHT22;10788;47.930;9.766;2022-08-19T02:52:26;16.60;99.90
21261;DHT22;10788;47.930;9.766;2022-08-19T02:54:52;16.70;99.90
21261;DHT22;10788;47.930;9.766;2022-08-19T02:57:18;16.70;99.90
21261;DHT22;10788;47.930;9.766;2022-08-19T02:59:43;16.60;99.90
21261;DHT22;10788;47.930;9.766;2022-08-19T03:02:10;16.60;99.90
21261;DHT22;10788;47.930;9.766;2022-08-19T03:04:36;16.60;99.90
21261;DHT22;10788;47.930;9.766;2022-08-19T03:07:01;16.60;99.90
21261;DHT22;10788;47.930;9.766;2022-08-19T03:09:27;16.50;99.90
21261;DHT22;10788;47.930;9.766;2022-08-19T03:11:55;16.50;99.90
21261;DHT22;10788;47.930;9.766;2022-08-19T03:14:20;16.40;99.90
21261;DHT22;10788;47.930;9.766;2022-08-19T03:16:51;16.40;99.90
21261;DHT22;10788;47.930;9.766;2022-08-19T03:19:19;16.50;99.90
21261;DHT22;10788;47.930;9.766;2022-08-19T03:21:45;16.50;99.90
21261;DHT22;10788;47.930;9.766;2022-08-19T03:24:11;16.50;99.90
21261;DHT22;10788;47.930;9.766;2022-08-19T03:26:43;16.50;99.90
21261;DHT22;10788;47.930;9.766;2022-08-19T03:29:10;16.40;99.90
21261;DHT22;10788;47.930;9.766;2022-08-19T03:31:37;16.30;99.90
21261;DHT22;10788;47.930;9.766;2022-08-19T03:34:03;16.30;99.90
21261;DHT22;10788;47.930;9.766;2022-08-19T03:36:29;16.30;99.90
21261;DHT22;10788;47.930;9.766;2022-08-19T03:39:00;16.30;99.90
21261;DHT22;10788;47.930;9.766;2022-08-19T03:41:35;16.40;99.90
21261;DHT22;10788;47.930;9.766;2022-08-19T03:44:02;16.40;99.90
21261;DHT22;10788;47.930;9.766;2022-08-19T03:46:32;16.40;99.90
21261;DHT22;10788;47.930;9.766;2022-08-19T03:48:59;16.30;99.90
21261;DHT22;10788;47.930;9.766;2022-08-19T03:51:31;16.30;99.90
21261;DHT22;10788;47.930;9.766;2022-08-19T03:53:59;16.40;99.90
21261;DHT22;10788;47.930;9.766;2022-08-19T03:56:26;16.40;99.90
21261;DHT22;10788;47.930;9.766;2022-08-19T03:58:54;16.40;99.90
21261;DHT22;10788;47.930;9.766;2022-08-19T04:01:21;16.40;99.90
21261;DHT22;10788;47.930;9.766;2022-08-19T04:03:48;16.40;99.90
21261;DHT22;10788;47.930;9.766;2022-08-19T04:06:20;16.40;99.90
21261;DHT22;10788;47.930;9.766;2022-08-19T04:08:48;16.40;99.90
21261;DHT22;10788;47.930;9.766;2022-08-19T04:11:20;16.40;99.90
21261;DHT22;10788;47.930;9.766;2022-08-19T04:13:47;16.40;99.90
21261;DHT22;10788;47.930;9.766;2022-08-19T04:16:13;16.40;99.90
21261;DHT22;10788;47.930;9.766;2022-08-19T04:18:39;16.40;99.90
21261;DHT22;10788;47.930;9.766;2022-08-19T04:21:06;16.40;99.90
21261;DHT22;10788;47.930;9.766;2022-08-19T04:23:33;16.40;99.90
21261;DHT22;10788;47.930;9.766;2022-08-19T04:25:59;16.40;99.90
21261;DHT22;10788;47.930;9.766;2022-08-19T04:28:25;16.40;99.90
21261;DHT22;10788;47.930;9.766;2022-08-19T04:30:53;16.40;99.90
21261;DHT22;10788;47.930;9.766;2022-08-19T04:33:22;16.40;99.90
21261;DHT22;10788;47.930;9.766;2022-08-19T04:35:49;16.40;99.90
21261;DHT22;10788;47.930;9.766;2022-08-19T04:38:19;16.40;99.90
21261;DHT22;10788;47.930;9.766;2022-08-19T04:40:47;16.40;99.90
21261;DHT22;10788;47.930;9.766;2022-08-19T04:43:33;16.40;99.90
21261;DHT22;10788;47.930;9.766;2022-08-19T04:46:05;16.40;99.90
21261;DHT22;10788;47.930;9.766;2022-08-19T04:48:31;16.40;99.90
21261;DHT22;10788;47.930;9.766;2022-08-19T04:50:58;16.40;99.90
21261;DHT22;10788;47.930;9.766;2022-08-19T04:53:25;16.40;99.90
21261;DHT22;10788;47.930;9.766;2022-08-19T04:55:52;16.40;99.90
21261;DHT22;10788;47.930;9.766;2022-08-19T04:58:17;16.50;99.90
21261;DHT22;10788;47.930;9.766;2022-08-19T05:00:43;16.50;99.90
21261;DHT22;10788;47.930;9.766;2022-08-19T05:03:09;16.50;99.90
21261;DHT22;10788;47.930;9.766;2022-08-19T05:05:41;16.50;99.90
21261;DHT22;10788;47.930;9.766;2022-08-19T05:08:07;16.50;99.90
21261;DHT22;10788;47.930;9.766;2022-08-19T05:10:35;16.50;99.90
21261;DHT22;10788;47.930;9.766;2022-08-19T05:13:02;16.50;99.90
21261;DHT22;10788;47.930;9.766;2022-08-19T05:15:28;16.50;99.90
21261;DHT22;10788;47.930;9.766;2022-08-19T05:17:53;16.50;99.90
21261;DHT22;10788;47.930;9.766;2022-08-19T05:20:38;16.50;99.90
21261;DHT22;10788;47.930;9.766;2022-08-19T05:23:36;16.40;99.90
21261;DHT22;10788;47.930;9.766;2022-08-19T05:26:02;16.40;99.90
21261;DHT22;10788;47.930;9.766;2022-08-19T05:28:30;16.40;99.90
21261;DHT22;10788;47.930;9.766;2022-08-19T05:30:56;16.30;99.90
21261;DHT22;10788;47.930;9.766;2022-08-19T05:33:22;16.30;99.90
21261;DHT22;10788;47.930;9.766;2022-08-19T05:35:49;16.30;99.90
21261;DHT22;10788;47.930;9.766;2022-08-19T05:38:16;16.30;99.90
21261;DHT22;10788;47.930;9.766;2022-08-19T05:40:42;16.40;99.90
21261;DHT22;10788;47.930;9.766;2022-08-19T05:43:12;16.40;99.90
21261;DHT22;10788;47.930;9.766;2022-08-19T05:45:42;16.40;99.90
21261;DHT22;10788;47.930;9.766;2022-08-19T05:48:11;16.40;99.90
21261;DHT22;10788;47.930;9.766;2022-08-19T05:50:39;16.40;99.90
21261;DHT22;10788;47.930;9.766;2022-08-19T05:53:05;16.30;99.90
21261;DHT22;10788;47.930;9.766;2022-08-19T05:55:32;16.40;99.90
21261;DHT22;10788;47.930;9.766;2022-08-19T05:57:58;16.40;99.90
21261;DHT22;10788;47.930;9.766;2022-08-19T06:00:23;16.40;99.90
21261;DHT22;10788;47.930;9.766;2022-08-19T06:02:49;16.40;99.90
21261;DHT22;10788;47.930;9.766;2022-08-19T06:05:16;16.40;99.90
21261;DHT22;10788;47.930;9.766;2022-08-19T06:07:42;16.50;99.90
21261;DHT22;10788;47.930;9.766;2022-08-19T06:10:09;16.50;99.90
21261;DHT22;10788;47.930;9.766;2022-08-19T06:12:36;16.50;99.90
21261;DHT22;10788;47.930;9.766;2022-08-19T06:15:11;16.50;99.90
21261;DHT22;10788;47.930;9.766;2022-08-19T06:17:37;16.50;99.90
21261;DHT22;10788;47.930;9.766;2022-08-19T06:20:05;16.50;99.90
21261;DHT22;10788;47.930;9.766;2022-08-19T06:22:31;16.60;99.90
21261;DHT22;10788;47.930;9.766;2022-08-19T06:24:57;16.60;99.90
21261;DHT22;10788;47.930;9.766;2022-08-19T06:27:23;16.60;99.90
21261;DHT22;10788;47.930;9.766;2022-08-19T06:29:49;16.60;99.90
21261;DHT22;10788;47.930;9.766;2022-08-19T06:32:16;16.60;99.90
21261;DHT22;10788;47.930;9.766;2022-08-19T06:34:43;16.60;99.90
21261;DHT22;10788;47.930;9.766;2022-08-19T06:37:09;16.60;99.90
21261;DHT22;10788;47.930;9.766;2022-08-19T06:39:37;16.60;99.90
21261;DHT22;10788;47.930;9.766;2022-08-19T06:42:05;16.60;99.90
21261;DHT22;10788;47.930;9.766;2022-08-19T06:44:34;16.70;99.90
21261;DHT22;10788;47.930;9.766;2022-08-19T06:47:07;16.70;99.90
21261;DHT22;10788;47.930;9.766;2022-08-19T06:49:33;16.70;99.90
21261;DHT22;10788;47.930;9.766;2022-08-19T06:52:00;16.70;99.90
21261;DHT22;10788;47.930;9.766;2022-08-19T06:54:27;16.70;99.90
21261;DHT22;10788;47.930;9.766;2022-08-19T06:56:55;16.70;99.90
21261;DHT22;10788;47.930;9.766;2022-08-19T06:59:23;16.70;99.90
21261;DHT22;10788;47.930;9.766;2022-08-19T07:01:54;16.70;99.90
21261;DHT22;10788;47.930;9.766;2022-08-19T07:04:26;16.70;99.90
21261;DHT22;10788;47.930;9.766;2022-08-19T07:07:04;16.70;99.90
21261;DHT22;10788;47.930;9.766;2022-08-19T07:09:33;16.70;99.90
21261;DHT22;10788;47.930;9.766;2022-08-19T07:11:59;16.70;99.90
21261;DHT22;10788;47.930;9.766;2022-08-19T07:14:27;16.70;99.90
21261;DHT22;10788;47.930;9.766;2022-08-19T07:16:55;16.70;99.90
21261;DHT22;10788;47.930;9.766;2022-08-19T07:19:23;16.80;99.90
21261;DHT22;10788;47.930;9.766;2022-08-19T07:21:50;16.80;99.90
21261;DHT22;10788;47.930;9.766;2022-08-19T07:24:19;16.80;99.90
21261;DHT22;10788;47.930;9.766;2022-08-19T07:26:46;16.80;99.90
21261;DHT22;10788;47.930;9.766;2022-08-19T07:29:12;16.90;99.90
21261;DHT22;10788;47.930;9.766;2022-08-19T07:31:38;16.90;99.90
21261;DHT22;10788;47.930;9.766;2022-08-19T07:34:06;16.90;99.90
21261;DHT22;10788;47.930;9.766;2022-08-19T07:36:38;16.90;99.90
21261;DHT22;10788;47.930;9.766;2022-08-19T07:39:10;16.90;99.90
21261;DHT22;10788;47.930;9.766;2022-08-19T07:41:40;16.90;99.90
21261;DHT22;10788;47.930;9.766;2022-08-19T07:44:07;16.90;99.90
21261;DHT22;10788;47.930;9.766;2022-08-19T07:46:35;17.00;99.90
21261;DHT22;10788;47.930;9.766;2022-08-19T07:49:04;17.00;99.90
21261;DHT22;10788;47.930;9.766;2022-08-19T07:51:30;17.00;99.90
21261;DHT22;10788;47.930;9.766;2022-08-19T07:53:56;17.00;99.90
21261;DHT22;10788;47.930;9.766;2022-08-19T07:56:22;17.00;99.90
21261;DHT22;10788;47.930;9.766;2022-08-19T07:58:49;17.00;99.90
21261;DHT22;10788;47.930;9.766;2022-08-19T08:01:18;17.00;99.90
21261;DHT22;10788;47.930;9.766;2022-08-19T08:03:44;17.00;99.90
21261;DHT22;10788;47.930;9.766;2022-08-19T08:06:29;17.00;99.90
21261;DHT22;10788;47.930;9.766;2022-08-19T08:09:15;17.00;99.90
21261;DHT22;10788;47.930;9.766;2022-08-19T08:14:44;17.00;99.90
21261;DHT22;10788;47.930;9.766;2022-08-19T08:17:11;17.00;99.90
21261;DHT22;10788;47.930;9.766;2022-08-19T08:19:38;17.00;99.90
21261;DHT22;10788;47.930;9.766;2022-08-19T08:22:07;16.90;99.90
21261;DHT22;10788;47.930;9.766;2022-08-19T08:24:34;17.00;99.90
21261;DHT22;10788;47.930;9.766;2022-08-19T08:27:01;17.00;99.90
21261;DHT22;10788;47.930;9.766;2022-08-19T08:29:29;16.90;99.90
21261;DHT22;10788;47.930;9.766;2022-08-19T08:31:55;17.00;99.90
21261;DHT22;10788;47.930;9.766;2022-08-19T08:34:21;17.00;99.90
21261;DHT22;10788;47.930;9.766;2022-08-19T08:36:47;16.90;99.90
21261;DHT22;10788;47.930;9.766;2022-08-19T08:39:16;16.90;99.90
21261;DHT22;10788;47.930;9.766;2022-08-19T08:42:01;16.90;99.90
21261;DHT22;10788;47.930;9.766;2022-08-19T08:44:43;16.90;99.90
21261;DHT22;10788;47.930;9.766;2022-08-19T08:47:18;16.90;99.90
21261;DHT22;10788;47.930;9.766;2022-08-19T08:49:56;16.90;99.90
21261;DHT22;10788;47.930;9.766;2022-08-19T08:52:31;16.90;99.90
21261;DHT22;10788;47.930;9.766;2022-08-19T08:55:05;16.90;99.90
21261;DHT22;10788;47.930;9.766;2022-08-19T09:00:26;17.10;99.90
21261;DHT22;10788;47.930;9.766;2022-08-19T09:02:53;17.10;99.90
21261;DHT22;10788;47.930;9.766;2022-08-19T09:05:20;17.20;99.90
21261;DHT22;10788;47.930;9.766;2022-08-19T09:10:50;17.20;99.90
21261;DHT22;10788;47.930;9.766;2022-08-19T09:16:18;17.30;99.90
21261;DHT22;10788;47.930;9.766;2022-08-19T09:18:48;17.20;99.90
21261;DHT22;10788;47.930;9.766;2022-08-19T09:21:17;17.30;99.90
21261;DHT22;10788;47.930;9.766;2022-08-19T09:23:43;17.20;99.90
21261;DHT22;10788;47.930;9.766;2022-08-19T09:26:11;17.30;99.90
21261;DHT22;10788;47.930;9.766;2022-08-19T09:28:42;17.20;99.90
21261;DHT22;10788;47.930;9.766;2022-08-19T09:31:10;17.20;99.90
21261;DHT22;10788;47.930;9.766;2022-08-19T09:33:39;17.20;99.90
21261;DHT22;10788;47.930;9.766;2022-08-19T09:36:09;17.20;99.90
21261;DHT22;10788;47.930;9.766;2022-08-19T09:38:36;17.20;99.90
21261;DHT22;10788;47.930;9.766;2022-08-19T09:41:09;17.20;99.90
21261;DHT22;10788;47.930;9.766;2022-08-19T09:43:39;17.10;99.90
21261;DHT22;10788;47.930;9.766;2022-08-19T09:46:06;17.10;99.90
21261;DHT22;10788;47.930;9.766;2022-08-19T09:48:33;17.20;99.90
21261;DHT22;10788;47.930;9.766;2022-08-19T09:51:07;17.20;99.90
21261;DHT22;10788;47.930;9.766;2022-08-19T09:53:34;17.20;99.90
21261;DHT22;10788;47.930;9.766;2022-08-19T09:56:00;17.20;99.90
21261;DHT22;10788;47.930;9.766;2022-08-19T09:58:26;17.30;99.90
21261;DHT22;10788;47.930;9.766;2022-08-19T10:00:54;17.30;99.90
21261;DHT22;10788;47.930;9.766;2022-08-19T10:03:21;17.30;99.90
21261;DHT22;10788;47.930;9.766;2022-08-19T10:05:46;17.40;99.90
21261;DHT22;10788;47.930;9.766;2022-08-19T10:08:21;17.40;99.90
21261;DHT22;10788;47.930;9.766;2022-08-19T10:10:48;17.40;99.90
21261;DHT22;10788;47.930;9.766;2022-08-19T10:13:16;17.30;99.90
21261;DHT22;10788;47.930;9.766;2022-08-19T10:15:42;17.30;99.90
21261;DHT22;10788;47.930;9.766;2022-08-19T10:18:09;17.40;99.90
21261;DHT22;10788;47.930;9.766;2022-08-19T10:20:35;17.40;99.90
21261;DHT22;10788;47.930;9.766;2022-08-19T10:23:03;17.30;99.90
21261;DHT22;10788;47.930;9.766;2022-08-19T10:25:29;17.30;99.90
21261;DHT22;10788;47.930;9.766;2022-08-19T10:27:57;17.30;99.90
21261;DHT22;10788;47.930;9.766;2022-08-19T10:30:22;17.30;99.90
21261;DHT22;10788;47.930;9.766;2022-08-19T10:32:48;17.30;99.90
21261;DHT22;10788;47.930;9.766;2022-08-19T10:35:14;17.40;99.90
21261;DHT22;10788;47.930;9.766;2022-08-19T10:37:39;17.40;99.90
21261;DHT22;10788;47.930;9.766;2022-08-19T10:40:06;17.40;99.90
21261;DHT22;10788;47.930;9.766;2022-08-19T10:42:34;17.40;99.90
21261;DHT22;10788;47.930;9.766;2022-08-19T10:45:01;17.40;99.90
21261;DHT22;10788;47.930;9.766;2022-08-19T10:47:27;17.40;99.90
21261;DHT22;10788;47.930;9.766;2022-08-19T10:49:53;17.40;99.90
21261;DHT22;10788;47.930;9.766;2022-08-19T10:52:43;17.30;99.90
21261;DHT22;10788;47.930;9.766;2022-08-19T10:55:09;17.40;99.90
21261;DHT22;10788;47.930;9.766;2022-08-19T10:57:53;17.30;99.90
21261;DHT22;10788;47.930;9.766;2022-08-19T11:00:20;17.40;99.90
21261;DHT22;10788;47.930;9.766;2022-08-19T11:02:46;17.40;99.90
21261;DHT22;10788;47.930;9.766;2022-08-19T11:05:12;17.40;99.90
21261;DHT22;10788;47.930;9.766;2022-08-19T11:07:39;17.40;99.90
21261;DHT22;10788;47.930;9.766;2022-08-19T11:10:05;17.40;99.90
21261;DHT22;10788;47.930;9.766;2022-08-19T11:12:31;17.50;99.90
21261;DHT22;10788;47.930;9.766;2022-08-19T11:14:58;17.50;99.90
21261;DHT22;10788;47.930;9.766;2022-08-19T11:17:24;17.50;99.90
21261;DHT22;10788;47.930;9.766;2022-08-19T11:19:52;17.50;99.90
21261;DHT22;10788;47.930;9.766;2022-08-19T11:22:17;17.50;99.90
21261;DHT22;10788;47.930;9.766;2022-08-19T11:24:43;17.50;99.90
21261;DHT22;10788;47.930;9.766;2022-08-19T11:27:10;17.50;99.90
21261;DHT22;10788;47.930;9.766;2022-08-19T11:29:38;17.50;99.90
21261;DHT22;10788;47.930;9.766;2022-08-19T11:32:07;17.50;99.90
21261;DHT22;10788;47.930;9.766;2022-08-19T11:34:34;17.50;99.90
21261;DHT22;10788;47.930;9.766;2022-08-19T11:37:01;17.40;99.90
21261;DHT22;10788;47.930;9.766;2022-08-19T11:39:29;17.50;99.90
21261;DHT22;10788;47.930;9.766;2022-08-19T11:41:57;17.50;99.90
21261;DHT22;10788;47.930;9.766;2022-08-19T11:44:23;17.50;99.90
21261;DHT22;10788;47.930;9.766;2022-08-19T11:46:48;17.50;99.90
21261;DHT22;10788;47.930;9.766;2022-08-19T11:49:16;17.50;99.90
21261;DHT22;10788;47.930;9.766;2022-08-19T11:51:44;17.50;99.90
21261;DHT22;10788;47.930;9.766;2022-08-19T11:54:10;17.40;99.90
21261;DHT22;10788;47.930;9.766;2022-08-19T11:56:38;17.40;99.90
21261;DHT22;10788;47.930;9.766;2022-08-19T11:59:04;17.30;99.90
21261;DHT22;10788;47.930;9.766;2022-08-19T12:01:30;17.40;99.90
21261;DHT22;10788;47.930;9.766;2022-08-19T12:03:57;17.30;99.90
21261;DHT22;10788;47.930;9.766;2022-08-19T12:06:28;17.30;99.90
21261;DHT22;10788;47.930;9.766;2022-08-19T12:09:04;17.30;99.90
21261;DHT22;10788;47.930;9.766;2022-08-19T12:11:31;17.30;99.90
21261;DHT22;10788;47.930;9.766;2022-08-19T12:13:56;17.30;99.90
21261;DHT22;10788;47.930;9.766;2022-08-19T12:16:28;17.30;99.90
21261;DHT22;10788;47.930;9.766;2022-08-19T12:18:54;17.30;99.90
21261;DHT22;10788;47.930;9.766;2022-08-19T12:21:23;17.30;99.90
21261;DHT22;10788;47.930;9.766;2022-08-19T12:23:58;17.40;99.90
21261;DHT22;10788;47.930;9.766;2022-08-19T12:26:25;17.30;99.90
21261;DHT22;10788;47.930;9.766;2022-08-19T12:28:51;17.40;99.90
21261;DHT22;10788;47.930;9.766;2022-08-19T12:31:17;17.40;99.90
21261;DHT22;10788;47.930;9.766;2022-08-19T12:33:43;17.40;99.90
21261;DHT22;10788;47.930;9.766;2022-08-19T12:36:11;17.40;99.90
21261;DHT22;10788;47.930;9.766;2022-08-19T12:38:38;17.40;99.90
21261;DHT22;10788;47.930;9.766;2022-08-19T12:41:05;17.30;99.90
21261;DHT22;10788;47.930;9.766;2022-08-19T12:43:35;17.40;99.90
21261;DHT22;10788;47.930;9.766;2022-08-19T12:46:02;17.40;99.90
21261;DHT22;10788;47.930;9.766;2022-08-19T12:48:29;17.40;99.90
21261;DHT22;10788;47.930;9.766;2022-08-19T12:50:55;17.40;99.90
21261;DHT22;10788;47.930;9.766;2022-08-19T12:53:21;17.40;99.90
21261;DHT22;10788;47.930;9.766;2022-08-19T12:55:46;17.40;99.90
21261;DHT22;10788;47.930;9.766;2022-08-19T12:58:12;17.40;99.90
21261;DHT22;10788;47.930;9.766;2022-08-19T13:00:38;17.40;99.90
21261;DHT22;10788;47.930;9.766;2022-08-19T13:03:04;17.40;99.90
21261;DHT22;10788;47.930;9.766;2022-08-19T13:05:31;17.40;99.90
21261;DHT22;10788;47.930;9.766;2022-08-19T13:07:59;17.40;99.90
21261;DHT22;10788;47.930;9.766;2022-08-19T13:10:32;17.40;99.90
21261;DHT22;10788;47.930;9.766;2022-08-19T13:13:06;17.40;99.90
21261;DHT22;10788;47.930;9.766;2022-08-19T13:15:38;17.40;99.90
21261;DHT22;10788;47.930;9.766;2022-08-19T13:18:06;17.40;99.90
21261;DHT22;10788;47.930;9.766;2022-08-19T13:20:32;17.40;99.90
21261;DHT22;10788;47.930;9.766;2022-08-19T13:22:58;17.50;99.90
21261;DHT22;10788;47.930;9.766;2022-08-19T13:25:24;17.50;99.90
21261;DHT22;10788;47.930;9.766;2022-08-19T13:27:51;17.50;99.90
21261;DHT22;10788;47.930;9.766;2022-08-19T13:30:18;17.50;99.90
21261;DHT22;10788;47.930;9.766;2022-08-19T13:33:03;17.50;99.90
21261;DHT22;10788;47.930;9.766;2022-08-19T13:35:49;17.50;99.90
21261;DHT22;10788;47.930;9.766;2022-08-19T13:38:20;17.50;99.90
21261;DHT22;10788;47.930;9.766;2022-08-19T13:40:47;17.50;99.90
21261;DHT22;10788;47.930;9.766;2022-08-19T13:43:15;17.50;99.90
21261;DHT22;10788;47.930;9.766;2022-08-19T13:45:42;17.50;99.90
21261;DHT22;10788;47.930;9.766;2022-08-19T13:48:08;17.50;99.90
21261;DHT22;10788;47.930;9.766;2022-08-19T13:50:38;17.50;99.90
21261;DHT22;10788;47.930;9.766;2022-08-19T13:53:05;17.50;99.90
21261;DHT22;10788;47.930;9.766;2022-08-19T13:55:30;17.50;99.90
21261;DHT22;10788;47.930;9.766;2022-08-19T13:57:58;17.50;99.90
21261;DHT22;10788;47.930;9.766;2022-08-19T14:00:27;17.50;99.90
21261;DHT22;10788;47.930;9.766;2022-08-19T14:02:55;17.50;99.90
21261;DHT22;10788;47.930;9.766;2022-08-19T14:05:21;17.40;99.90
21261;DHT22;10788;47.930;9.766;2022-08-19T14:07:47;17.50;99.90
21261;DHT22;10788;47.930;9.766;2022-08-19T14:10:14;17.50;99.90
21261;DHT22;10788;47.930;9.766;2022-08-19T14:12:41;17.50;99.90
21261;DHT22;10788;47.930;9.766;2022-08-19T14:15:08;17.50;99.90
21261;DHT22;10788;47.930;9.766;2022-08-19T14:17:37;17.40;99.90
21261;DHT22;10788;47.930;9.766;2022-08-19T14:20:04;17.40;99.90
21261;DHT22;10788;47.930;9.766;2022-08-19T14:22:39;17.30;99.90
21261;DHT22;10788;47.930;9.766;2022-08-19T14:25:10;17.30;99.90
21261;DHT22;10788;47.930;9.766;2022-08-19T14:27:38;17.20;99.90
21261;DHT22;10788;47.930;9.766;2022-08-19T14:30:06;17.20;99.90
21261;DHT22;10788;47.930;9.766;2022-08-19T14:32:32;17.20;99.90
21261;DHT22;10788;47.930;9.766;2022-08-19T14:34:59;17.10;99.90
21261;DHT22;10788;47.930;9.766;2022-08-19T14:37:25;17.00;99.90
21261;DHT22;10788;47.930;9.766;2022-08-19T14:39:50;17.10;99.90
21261;DHT22;10788;47.930;9.766;2022-08-19T14:42:16;17.00;99.90
21261;DHT22;10788;47.930;9.766;2022-08-19T14:44:42;17.00;99.90
21261;DHT22;10788;47.930;9.766;2022-08-19T14:47:08;16.90;99.90
21261;DHT22;10788;47.930;9.766;2022-08-19T14:49:35;16.70;99.90
21261;DHT22;10788;47.930;9.766;2022-08-19T14:52:00;16.70;99.90
21261;DHT22;10788;47.930;9.766;2022-08-19T14:54:26;16.60;99.90
21261;DHT22;10788;47.930;9.766;2022-08-19T14:56:52;16.50;99.90
21261;DHT22;10788;47.930;9.766;2022-08-19T14:59:17;16.60;99.90
21261;DHT22;10788;47.930;9.766;2022-08-19T15:01:43;16.60;99.90
21261;DHT22;10788;47.930;9.766;2022-08-19T15:04:09;16.60;99.90
21261;DHT22;10788;47.930;9.766;2022-08-19T15:06:35;16.50;99.90
21261;DHT22;10788;47.930;9.766;2022-08-19T15:09:01;16.50;99.90
21261;DHT22;10788;47.930;9.766;2022-08-19T15:11:28;16.50;99.90
21261;DHT22;10788;47.930;9.766;2022-08-19T15:13:55;16.50;99.90
21261;DHT22;10788;47.930;9.766;2022-08-19T15:16:22;16.60;99.90
21261;DHT22;10788;47.930;9.766;2022-08-19T15:18:53;16.60;99.90
21261;DHT22;10788;47.930;9.766;2022-08-19T15:21:19;16.60;99.90
21261;DHT22;10788;47.930;9.766;2022-08-19T15:23:49;16.70;99.90
21261;DHT22;10788;47.930;9.766;2022-08-19T15:26:19;16.70;99.90
21261;DHT22;10788;47.930;9.766;2022-08-19T15:28:45;16.80;99.90
21261;DHT22;10788;47.930;9.766;2022-08-19T15:31:12;16.80;99.90
21261;DHT22;10788;47.930;9.766;2022-08-19T15:33:41;16.80;99.90
21261;DHT22;10788;47.930;9.766;2022-08-19T15:36:09;16.70;99.90
21261;DHT22;10788;47.930;9.766;2022-08-19T15:38:35;16.80;99.90
21261;DHT22;10788;47.930;9.766;2022-08-19T15:41:04;16.80;99.90
21261;DHT22;10788;47.930;9.766;2022-08-19T15:44:00;16.70;99.90
21261;DHT22;10788;47.930;9.766;2022-08-19T15:46:31;16.70;99.90
21261;DHT22;10788;47.930;9.766;2022-08-19T15:48:57;16.70;99.90